Time;durP1;ratioP1;P1;durP2;ratioP2;P2;SDS_P1;SDS_P2;PMS_P1;PMS_P2;Temp;Humidity;BMP_temperature;BMP_pressure;BME280_temperature;BME280_humidity;BME280_pressure;Samples;Min_cycle;Max_cycle;Signal;HPM_P1;HPM_P2
2022/08/10 00:02:22;;;;;;;15.80;10.82;;;;;;;14.05;76.46;102565.77;1714709;82;21077;-91
2022/08/10 00:04:48;;;;;;;18.87;11.53;;;;;;;14.04;76.44;102566.63;1729994;82;21062;-91
2022/08/10 00:07:17;;;;;;;14.55;10.88;;;;;;;14.03;76.58;102566.56;1706794;82;21090;-91
2022/08/10 00:09:47;;;;;;;15.72;10.98;;;;;;;14.01;76.56;102569.14;1737948;81;21094;-91
2022/08/10 00:12:14;;;;;;;14.47;11.25;;;;;;;13.98;76.64;102565.96;1734362;82;21067;-90
2022/08/10 00:14:40;;;;;;;16.62;11.10;;;;;;;13.99;76.69;102573.47;1721378;82;21752;-85
2022/08/10 00:17:07;;;;;;;17.37;11.10;;;;;;;13.98;76.75;102570.33;1696740;82;21136;-91
2022/08/10 00:19:34;;;;;;;16.30;11.35;;;;;;;13.95;76.78;102573.77;1713233;82;21043;-85
2022/08/10 00:22:01;;;;;;;15.75;11.30;;;;;;;13.94;76.87;102568.41;1719020;82;21039;-84
2022/08/10 00:24:27;;;;;;;15.93;11.20;;;;;;;13.92;76.90;102578.03;1709322;82;21117;-85
2022/08/10 00:26:54;;;;;;;19.07;11.48;;;;;;;13.90;76.97;102567.80;1725410;82;22634;-91
2022/08/10 00:29:26;;;;;;;14.55;11.35;;;;;;;13.89;77.02;102571.28;1718207;82;21118;-91
2022/08/10 00:31:53;;;;;;;16.85;11.80;;;;;;;13.89;77.09;102572.60;1735183;82;21624;-91
2022/08/10 00:34:20;;;;;;;18.00;11.63;;;;;;;13.90;77.16;102569.13;1723652;82;21108;-90
2022/08/10 00:36:47;;;;;;;14.68;11.18;;;;;;;13.89;77.15;102569.95;1726252;82;21122;-90
2022/08/10 00:39:15;;;;;;;18.12;11.05;;;;;;;13.87;77.21;102563.70;1713773;82;21732;-90
2022/08/10 00:41:41;;;;;;;17.42;11.95;;;;;;;13.86;77.26;102565.88;1708923;82;21094;-92
2022/08/10 00:44:08;;;;;;;18.17;11.83;;;;;;;13.84;77.28;102568.46;1715183;83;21040;-84
2022/08/10 00:46:35;;;;;;;14.95;11.55;;;;;;;13.84;77.32;102567.56;1720201;83;21325;-84
2022/08/10 00:49:05;;;;;;;18.98;11.45;;;;;;;13.84;77.42;102567.56;1706711;82;21075;-85
2022/08/10 00:51:32;;;;;;;16.20;11.18;;;;;;;13.80;77.44;102567.43;1706945;83;22569;-84
2022/08/10 00:54:00;;;;;;;16.60;11.63;;;;;;;13.78;77.51;102566.47;1714772;82;21079;-84
2022/08/10 00:56:26;;;;;;;18.75;12.60;;;;;;;13.77;77.55;102567.72;1719845;83;21585;-84
2022/08/10 00:58:54;;;;;;;16.10;11.33;;;;;;;13.76;77.64;102567.26;1708321;82;21094;-84
2022/08/10 01:01:20;;;;;;;15.45;11.75;;;;;;;13.76;77.70;102560.64;1713960;82;21079;-84
2022/08/10 01:03:47;;;;;;;15.88;12.13;;;;;;;13.74;77.70;102561.89;1722982;82;21717;-84
2022/08/10 01:06:42;;;;;;;16.80;12.23;;;;;;;13.74;77.78;102566.26;1707802;83;21111;-85
2022/08/10 01:09:47;;;;;;;15.65;11.78;;;;;;;13.73;77.77;102564.05;1704703;82;21072;-85
2022/08/10 01:12:25;;;;;;;17.85;12.35;;;;;;;13.71;77.81;102563.08;1699615;82;21139;-84
2022/08/10 01:15:15;;;;;;;19.23;12.15;;;;;;;13.70;77.89;102559.97;1739623;81;21074;-84
2022/08/10 01:17:59;;;;;;;18.00;11.78;;;;;;;13.68;77.94;102555.44;1716501;83;22745;-84
2022/08/10 01:20:40;;;;;;;23.87;11.45;;;;;;;13.67;78.00;102559.83;1715280;82;21111;-84
2022/08/10 01:23:27;;;;;;;18.10;11.70;;;;;;;13.67;78.06;102562.91;1707513;83;21088;-85
2022/08/10 01:26:02;;;;;;;13.90;10.35;;;;;;;13.64;78.11;102558.37;1707671;83;21114;-84
2022/08/10 01:28:55;;;;;;;16.77;11.15;;;;;;;13.63;78.17;102557.91;1713462;82;21063;-84
2022/08/10 01:31:25;;;;;;;16.40;10.80;;;;;;;13.63;78.30;102555.66;1709348;83;22668;-84
2022/08/10 01:33:55;;;;;;;12.55;11.25;;;;;;;13.62;78.37;102553.44;1707549;83;21135;-84
2022/08/10 01:36:33;;;;;;;13.45;11.50;;;;;;;13.62;78.44;102552.11;1711145;83;21636;-90
2022/08/10 01:39:03;;;;;;;14.05;11.12;;;;;;;13.63;78.46;102555.66;1717032;82;21052;-90
2022/08/10 01:41:42;;;;;;;14.47;10.63;;;;;;;13.63;78.51;102549.04;1706867;82;21068;-90
2022/08/10 01:44:13;;;;;;;16.52;10.85;;;;;;;13.61;78.53;102543.71;1731339;82;21813;-90
2022/08/10 01:46:43;;;;;;;16.27;11.35;;;;;;;13.59;78.58;102544.97;1720953;82;21087;-91
2022/08/10 01:49:13;;;;;;;16.25;10.88;;;;;;;13.59;78.63;102553.33;1727906;82;21054;-89
2022/08/10 01:51:54;;;;;;;13.43;10.70;;;;;;;13.58;78.69;102538.28;1727884;81;21160;-90
2022/08/10 01:54:23;;;;;;;13.48;10.25;;;;;;;13.59;78.72;102539.67;1739882;81;21084;-90
2022/08/10 01:56:53;;;;;;;18.50;11.20;;;;;;;13.58;78.81;102543.14;1730806;82;21755;-91
2022/08/10 01:59:39;;;;;;;12.73;10.68;;;;;;;13.57;78.82;102549.30;1733684;81;21043;-91
2022/08/10 02:02:09;;;;;;;12.35;10.03;;;;;;;13.56;78.90;102543.94;1740817;82;21032;-90
2022/08/10 02:04:46;;;;;;;16.05;10.20;;;;;;;13.51;78.96;102536.22;1731534;81;21110;-91
2022/08/10 02:07:16;;;;;;;14.25;9.70;;;;;;;13.52;79.01;102549.52;1734857;81;21118;-91
2022/08/10 02:09:50;;;;;;;13.40;10.28;;;;;;;13.51;79.04;102538.86;1729852;82;21770;-91
2022/08/10 02:12:19;;;;;;;13.15;10.18;;;;;;;13.51;79.06;102542.83;1692539;82;21009;-91
2022/08/10 02:15:00;;;;;;;10.82;9.30;;;;;;;13.49;79.10;102542.76;1680094;82;21090;-91
2022/08/10 02:17:35;;;;;;;12.40;9.50;;;;;;;13.48;79.11;102548.02;1740192;82;21051;-91
2022/08/10 02:20:11;;;;;;;12.88;8.90;;;;;;;13.46;79.15;102547.02;1708137;82;21122;-91
2022/08/10 02:22:38;;;;;;;13.00;10.32;;;;;;;13.44;79.18;102552.66;1748110;81;21799;-91
2022/08/10 02:25:09;;;;;;;11.30;9.50;;;;;;;13.42;79.20;102544.69;1717504;81;21065;-91
2022/08/10 02:27:35;;;;;;;14.05;10.20;;;;;;;13.40;79.22;102542.37;1728053;82;21147;-91
2022/08/10 02:30:04;;;;;;;13.83;10.23;;;;;;;13.39;79.24;102549.41;1715352;82;21055;-91
2022/08/10 02:32:33;;;;;;;14.60;10.00;;;;;;;13.38;79.32;102554.23;1701137;83;21082;-91
2022/08/10 02:35:00;;;;;;;12.35;9.70;;;;;;;13.37;79.29;102547.55;1744341;81;21686;-91
2022/08/10 02:37:27;;;;;;;12.00;9.65;;;;;;;13.36;79.32;102558.56;1678292;84;21071;-90
2022/08/10 02:39:54;;;;;;;11.83;10.10;;;;;;;13.35;79.35;102559.38;1715517;82;21050;-90
2022/08/10 02:42:47;;;;;;;15.15;9.90;;;;;;;13.33;79.40;102569.00;1710988;82;21234;-90
2022/08/10 02:45:19;;;;;;;12.20;9.88;;;;;;;13.33;79.45;102569.00;1726233;82;21051;-90
2022/08/10 02:47:53;;;;;;;18.17;10.23;;;;;;;13.32;79.47;102572.47;1721008;82;21817;-91
2022/08/10 02:50:35;;;;;;;12.43;9.70;;;;;;;13.29;79.51;102565.71;1722236;81;21582;-90
2022/08/10 02:53:12;;;;;;;13.75;9.33;;;;;;;13.28;79.57;102567.86;1723776;82;21106;-90
2022/08/10 02:56:04;;;;;;;16.60;10.25;;;;;;;13.26;79.63;102569.53;1739835;81;21075;-90
2022/08/10 02:58:45;;;;;;;12.28;10.03;;;;;;;13.26;79.64;102569.96;1726665;82;21690;-90
2022/08/10 03:01:16;;;;;;;14.95;10.18;;;;;;;13.25;79.66;102567.74;1714382;82;22163;-90
2022/08/10 03:03:47;;;;;;;16.07;10.55;;;;;;;13.24;79.72;102565.92;1713212;82;21063;-90
2022/08/10 03:06:36;;;;;;;14.68;11.18;;;;;;;13.23;79.74;102562.77;1729549;82;21054;-90
2022/08/10 03:09:05;;;;;;;13.55;10.80;;;;;;;13.21;79.80;102563.13;1712070;82;21568;-91
2022/08/10 03:11:33;;;;;;;14.07;10.13;;;;;;;13.20;79.84;102563.98;1711327;81;21063;-91
2022/08/10 03:14:00;;;;;;;17.12;10.70;;;;;;;13.19;79.88;102567.06;1730357;81;21758;-90
2022/08/10 03:16:28;;;;;;;13.90;10.48;;;;;;;13.18;79.91;102566.56;1721436;81;21082;-89
2022/08/10 03:18:56;;;;;;;13.55;10.85;;;;;;;13.21;79.96;102564.45;1740317;81;21126;-90
2022/08/10 03:21:29;;;;;;;16.30;10.88;;;;;;;13.20;79.99;102572.81;1751292;81;21197;-89
2022/08/10 03:23:58;;;;;;;12.13;10.35;;;;;;;13.23;80.01;102574.67;1708233;81;21071;-89
2022/08/10 03:26:24;;;;;;;11.65;10.25;;;;;;;13.23;80.03;102565.42;1723420;81;21764;-90
2022/08/10 03:28:52;;;;;;;15.18;10.55;;;;;;;13.25;80.03;102576.07;1710746;82;21042;-90
2022/08/10 03:31:19;;;;;;;18.20;10.53;;;;;;;13.28;80.06;102577.11;1738323;81;21056;-89
2022/08/10 03:33:45;;;;;;;15.85;10.10;;;;;;;13.29;80.04;102578.94;1720421;81;21130;-90
2022/08/10 03:36:12;;;;;;;14.23;10.25;;;;;;;13.31;80.03;102579.04;1740102;82;21043;-90
2022/08/10 03:38:44;;;;;;;15.90;11.03;;;;;;;13.31;80.03;102577.72;1719894;81;21759;-91
2022/08/10 03:41:24;;;;;;;13.80;10.53;;;;;;;13.33;80.05;102576.94;1733341;81;21046;-90
2022/08/10 03:43:51;;;;;;;13.28;10.23;;;;;;;13.37;80.06;102577.97;1729602;82;21043;-90
2022/08/10 03:46:20;;;;;;;13.35;9.65;;;;;;;13.53;80.57;102573.82;1724393;81;21502;-90
2022/08/10 03:48:47;;;;;;;17.15;10.25;;;;;;;14.46;82.65;102573.11;1739000;82;21083;-90
2022/08/10 03:51:14;;;;;;;14.55;9.85;;;;;;;15.69;82.25;102570.89;1740395;82;21849;-89
2022/08/10 03:53:41;;;;;;;11.93;8.93;;;;;;;16.88;81.11;102568.80;1739905;82;21616;-90
2022/08/10 03:56:08;;;;;;;10.70;8.60;;;;;;;17.92;79.36;102564.39;1733518;82;21545;-90
2022/08/10 03:58:34;;;;;;;11.33;9.15;;;;;;;18.91;77.97;102569.23;1722025;82;22445;-91
2022/08/10 04:01:01;;;;;;;13.53;8.63;;;;;;;19.83;76.34;102569.55;1739338;82;21974;-90
2022/08/10 04:03:28;;;;;;;10.03;7.78;;;;;;;20.68;74.76;102566.73;1736058;82;21955;-91
2022/08/10 04:05:55;;;;;;;10.18;7.78;;;;;;;21.60;73.05;102567.69;1725486;82;21058;-91
2022/08/10 04:08:22;;;;;;;8.20;6.80;;;;;;;22.54;71.58;102567.41;1699243;83;21108;-90
2022/08/10 04:10:48;;;;;;;9.18;7.08;;;;;;;23.26;69.40;102575.72;1720786;82;21051;-90
2022/08/10 04:13:16;;;;;;;8.55;7.05;;;;;;;23.93;67.75;102576.19;1716778;82;21051;-90
2022/08/10 04:15:43;;;;;;;9.28;8.08;;;;;;;24.61;66.37;102574.21;1708773;82;21771;-83
2022/08/10 04:18:09;;;;;;;10.78;7.00;;;;;;;25.22;64.88;102574.28;1728262;82;21311;-85
2022/08/10 04:20:46;;;;;;;7.80;6.42;;;;;;;25.88;63.59;102574.67;1732321;82;21154;-87
2022/08/10 04:23:17;;;;;;;9.53;6.53;;;;;;;26.64;61.99;102573.43;1723509;82;21122;-89
2022/08/10 04:25:44;;;;;;;10.80;6.42;;;;;;;27.28;60.50;102574.33;1725699;82;21079;-88
2022/08/10 04:28:11;;;;;;;9.78;6.28;;;;;;;27.97;59.12;102573.16;1711027;82;21761;-88
2022/08/10 04:30:40;;;;;;;8.53;6.42;;;;;;;28.50;57.42;102572.52;1719314;82;21129;-89
2022/08/10 04:33:08;;;;;;;6.50;5.80;;;;;;;28.96;55.74;102574.72;1733902;82;21035;-89
2022/08/10 04:35:34;;;;;;;8.88;6.37;;;;;;;29.43;54.86;102571.79;1717512;82;21070;-90
2022/08/10 04:38:02;;;;;;;8.63;6.53;;;;;;;30.17;53.92;102576.65;1731349;82;21071;-84
2022/08/10 04:40:29;;;;;;;7.08;5.47;;;;;;;30.70;52.10;102578.27;1725077;82;21748;-91
2022/08/10 04:43:04;;;;;;;8.78;5.60;;;;;;;31.12;51.61;102575.62;1706587;82;21644;-84
2022/08/10 04:45:31;;;;;;;7.72;5.22;;;;;;;31.77;50.54;102581.16;1690347;84;21600;-88
2022/08/10 04:47:58;;;;;;;6.30;4.60;;;;;;;32.35;49.17;102579.05;1664202;84;21130;-87
2022/08/10 04:50:25;;;;;;;7.53;5.00;;;;;;;32.80;47.91;102585.54;1665721;84;21095;-87
2022/08/10 04:52:52;;;;;;;8.40;5.28;;;;;;;33.31;47.11;102582.13;1686696;84;21812;-87
2022/08/10 04:55:19;;;;;;;6.17;4.72;;;;;;;33.59;45.37;102579.59;1680099;84;21087;-84
2022/08/10 04:57:45;;;;;;;7.25;4.85;;;;;;;33.87;44.85;102581.55;1697849;84;21119;-85
2022/08/10 05:00:13;;;;;;;9.20;4.78;;;;;;;34.24;43.88;102590.85;1637244;87;21679;-84
2022/08/10 05:02:40;;;;;;;8.93;5.15;;;;;;;34.75;43.15;102593.08;1690415;83;21102;-84
2022/08/10 05:05:08;;;;;;;5.80;4.53;;;;;;;35.21;41.85;102588.09;1678116;84;21820;-84
2022/08/10 05:07:35;;;;;;;6.95;4.30;;;;;;;35.33;41.07;102585.23;1624845;87;22346;-84
2022/08/10 05:10:01;;;;;;;6.85;4.03;;;;;;;35.60;40.19;102585.65;1674088;84;21648;-86
2022/08/10 05:12:28;;;;;;;6.35;4.03;;;;;;;35.72;39.28;102585.52;1683719;84;21024;-84
2022/08/10 05:14:56;;;;;;;5.53;4.10;;;;;;;36.10;39.65;102587.59;1679520;84;21115;-85
2022/08/10 05:17:22;;;;;;;8.40;4.05;;;;;;;36.83;38.78;102591.37;1687915;83;21762;-85
2022/08/10 05:19:49;;;;;;;4.95;4.03;;;;;;;37.15;37.42;102585.40;1686824;83;21066;-84
2022/08/10 05:22:16;;;;;;;5.47;4.33;;;;;;;37.23;36.62;102590.43;1681951;84;21137;-85
2022/08/10 05:24:43;;;;;;;6.05;4.08;;;;;;;37.28;36.31;102584.65;1687017;83;21075;-93
2022/08/10 05:27:25;;;;;;;5.65;3.77;;;;;;;37.29;35.34;102585.94;1700117;84;21075;-92
2022/08/10 05:29:52;;;;;;;4.87;3.67;;;;;;;37.18;35.27;102582.95;1699401;84;22577;-85
2022/08/10 05:32:44;;;;;;;9.10;4.15;;;;;;;37.35;34.87;102587.44;1674331;85;21063;-85
2022/08/10 05:35:11;;;;;;;8.27;4.77;;;;;;;37.32;34.50;102590.39;1684136;83;21099;-93
2022/08/10 05:37:38;;;;;;;9.23;3.72;;;;;;;36.73;33.77;102591.48;1690962;83;21310;-85
2022/08/10 05:40:06;;;;;;;6.58;3.87;;;;;;;35.42;33.45;102592.49;1702309;83;21533;-93
2022/08/10 05:42:44;;;;;;;6.00;3.50;;;;;;;33.68;33.69;102580.59;1693359;82;21788;-92
2022/08/10 05:45:19;;;;;;;6.25;3.77;;;;;;;32.07;34.61;102596.02;1709320;82;21054;-92
2022/08/10 05:47:48;;;;;;;9.28;4.15;;;;;;;30.50;35.68;102592.92;1687437;83;21644;-93
2022/08/10 05:50:16;;;;;;;9.48;4.00;;;;;;;29.27;37.02;102593.88;1691173;82;21571;-84
2022/08/10 05:52:43;;;;;;;8.03;4.17;;;;;;;28.35;38.04;102589.09;1709814;82;21194;-92
2022/08/10 05:55:10;;;;;;;12.35;4.05;;;;;;;27.54;39.01;102593.71;1730121;82;21586;-85
2022/08/10 05:57:49;;;;;;;9.18;4.10;;;;;;;26.79;39.99;102590.78;1690786;82;21035;-93
2022/08/10 06:00:18;;;;;;;8.55;3.62;;;;;;;26.10;40.81;102591.58;1682507;84;21081;-84
2022/08/10 06:02:47;;;;;;;7.90;4.25;;;;;;;25.42;41.83;102590.81;1690015;83;21161;-84
2022/08/10 06:05:17;;;;;;;5.60;3.20;;;;;;;24.79;42.30;102594.75;1685279;84;21084;-85
2022/08/10 06:08:10;;;;;;;5.08;3.83;;;;;;;24.01;43.16;102595.01;1678741;82;21744;-93
2022/08/10 06:10:43;;;;;;;4.60;3.35;;;;;;;23.41;44.16;102595.87;1699432;82;21090;-92
2022/08/10 06:16:09;;;;;;;6.47;3.70;;;;;;;22.41;45.61;102593.29;1679740;82;21122;-93
2022/08/10 06:18:39;;;;;;;3.87;3.10;;;;;;;22.05;46.52;102585.45;1658819;82;21160;-92
2022/08/10 06:21:05;;;;;;;5.58;4.08;;;;;;;21.83;47.18;102590.67;1704984;82;21775;-91
2022/08/10 06:23:32;;;;;;;6.67;3.80;;;;;;;21.63;47.58;102589.17;1709915;82;21548;-92
2022/08/10 06:25:59;;;;;;;3.27;2.87;;;;;;;21.41;48.10;102591.17;1685626;84;21106;-92
2022/08/10 06:28:39;;;;;;;3.12;2.37;;;;;;;21.30;48.78;102591.05;1729653;82;21059;-93
2022/08/10 06:31:06;;;;;;;2.55;2.27;;;;;;;21.17;48.86;102591.37;1708610;82;21055;-93
2022/08/10 06:33:37;;;;;;;2.98;2.70;;;;;;;21.02;49.33;102603.26;1718221;82;22382;-91
2022/08/10 06:36:06;;;;;;;5.40;3.00;;;;;;;20.83;49.69;102593.67;1704935;82;21073;-91
2022/08/10 06:38:33;;;;;;;2.87;2.60;;;;;;;20.76;50.11;102590.05;1709958;82;21042;-90
2022/08/10 06:41:05;;;;;;;3.47;2.75;;;;;;;20.70;50.45;102589.98;1685516;83;21095;-93
2022/08/10 06:43:31;;;;;;;5.33;3.10;;;;;;;20.61;50.68;102581.83;1705510;82;21076;-92
2022/08/10 06:46:05;;;;;;;5.17;2.87;;;;;;;20.69;51.01;102591.29;1674895;84;21901;-88
2022/08/10 06:48:36;;;;;;;7.15;3.40;;;;;;;20.82;51.50;102589.67;1712883;83;21360;-89
2022/08/10 06:51:06;;;;;;;6.70;3.35;;;;;;;21.02;51.56;102584.52;1706961;82;21573;-92
2022/08/10 06:53:38;;;;;;;3.58;2.80;;;;;;;21.15;51.33;102592.72;1724741;82;21059;-94
2022/08/10 06:56:23;;;;;;;6.83;3.65;;;;;;;21.20;51.21;102585.16;1717876;83;21087;-93
2022/08/10 06:59:09;;;;;;;3.42;2.87;;;;;;;21.22;51.28;102592.77;1723161;81;21784;-94
2022/08/10 07:01:37;;;;;;;3.10;2.80;;;;;;;21.12;51.16;102582.41;1721348;82;21069;-93
2022/08/10 07:04:28;;;;;;;8.40;3.00;;;;;;;21.10;51.29;102586.41;1699465;83;21295;-92
2022/08/10 07:07:05;;;;;;;8.93;3.17;;;;;;;21.06;51.34;102586.34;1716952;82;21184;-92
2022/08/10 07:09:36;;;;;;;10.05;3.37;;;;;;;20.95;51.61;102581.78;1727320;81;21158;-92
2022/08/10 07:12:05;;;;;;;5.03;2.98;;;;;;;20.94;51.69;102591.12;1705101;82;21768;-93
2022/08/10 07:14:33;;;;;;;4.95;2.95;;;;;;;20.88;51.98;102599.98;1720377;81;21095;-92
2022/08/10 07:17:03;;;;;;;6.35;2.90;;;;;;;20.93;52.01;102598.72;1713554;81;21086;-92
2022/08/10 07:19:30;;;;;;;7.37;3.98;;;;;;;20.91;51.88;102596.02;1709167;82;21092;-93
2022/08/10 07:21:57;;;;;;;5.45;3.30;;;;;;;20.85;52.03;102601.73;1691443;81;21085;-86
2022/08/10 07:24:24;;;;;;;3.50;2.87;;;;;;;20.88;52.25;102597.31;1646665;85;21791;-84
2022/08/10 07:26:53;;;;;;;4.95;4.35;;;;;;;20.91;52.28;102594.68;1637259;85;21102;-85
2022/08/10 07:29:26;;;;;;;6.20;3.22;;;;;;;20.98;52.35;102599.65;1629882;85;21864;-83
2022/08/10 07:31:49;;;;;;;7.97;5.28;;;;;;;21.05;52.51;102600.63;1704261;82;21107;-83
2022/08/10 07:34:18;;;;;;;5.15;3.35;;;;;;;21.18;52.58;102602.55;1663448;83;21067;-84
2022/08/10 07:36:46;;;;;;;7.50;3.77;;;;;;;21.20;52.23;102602.58;1663622;83;22569;-83
2022/08/10 07:39:13;;;;;;;4.55;3.75;;;;;;;21.20;52.29;102599.90;1662904;85;21091;-84
2022/08/10 07:41:41;;;;;;;5.83;3.05;;;;;;;21.22;52.29;102599.02;1660608;85;21111;-85
2022/08/10 07:44:09;;;;;;;2.85;2.60;;;;;;;21.21;52.16;102602.59;1660228;84;21115;-84
2022/08/10 07:46:36;;;;;;;8.35;3.00;;;;;;;21.20;52.13;102601.23;1682520;84;21094;-84
2022/08/10 07:49:13;;;;;;;7.75;3.58;;;;;;;21.33;52.31;102596.45;1688686;84;21099;-86
2022/08/10 07:51:40;;;;;;;4.45;2.98;;;;;;;21.41;52.20;102601.44;1684863;84;21102;-83
2022/08/10 07:54:14;;;;;;;5.50;2.77;;;;;;;21.53;52.39;102601.59;1675134;84;33347;-84
2022/08/10 07:56:36;;;;;;;4.37;2.85;;;;;;;21.65;52.13;102590.08;1694765;83;21659;-87
2022/08/10 07:59:09;;;;;;;9.73;3.02;;;;;;;21.76;51.96;102594.64;1684879;84;21100;-84
2022/08/10 08:01:40;;;;;;;7.37;3.20;;;;;;;21.80;51.96;102594.66;1690671;83;22441;-85
2022/08/10 08:04:06;;;;;;;5.55;3.35;;;;;;;21.93;52.02;102593.87;1687810;83;21580;-85
2022/08/10 08:06:33;;;;;;;4.47;3.10;;;;;;;22.12;52.08;102593.55;1679777;83;21084;-85
2022/08/10 08:09:09;;;;;;;6.53;3.27;;;;;;;22.31;51.85;102606.66;1687716;84;21067;-93
2022/08/10 08:11:38;;;;;;;4.53;3.47;;;;;;;22.39;51.73;102605.38;1664815;85;21075;-90
2022/08/10 08:14:06;;;;;;;4.75;3.35;;;;;;;22.39;51.53;102589.70;1683919;83;22506;-92
2022/08/10 08:16:35;;;;;;;3.27;2.60;;;;;;;22.39;51.48;102593.31;1691637;83;21567;-92
2022/08/10 08:19:02;;;;;;;2.92;2.00;;;;;;;22.40;50.97;102596.88;1686524;83;21127;-92
2022/08/10 08:21:29;;;;;;;2.92;2.62;;;;;;;22.34;50.49;102597.74;1679238;83;21074;-90
2022/08/10 08:23:56;;;;;;;2.27;2.08;;;;;;;22.27;50.71;102603.95;1696506;83;21103;-90
2022/08/10 08:26:25;;;;;;;3.15;2.92;;;;;;;22.37;50.71;102603.11;1688352;83;21760;-90
2022/08/10 08:28:51;;;;;;;2.92;2.37;;;;;;;22.34;50.64;102590.15;1665598;85;21961;-88
2022/08/10 08:31:19;;;;;;;2.80;2.35;;;;;;;22.42;50.49;102595.09;1655580;85;21569;-89
2022/08/10 08:33:46;;;;;;;2.27;2.08;;;;;;;22.31;50.26;102589.67;1665484;85;21191;-91
2022/08/10 08:36:15;;;;;;;3.58;2.22;;;;;;;22.14;50.26;102591.77;1670194;85;21075;-91
2022/08/10 08:38:41;;;;;;;2.30;2.10;;;;;;;22.05;50.22;102586.34;1673873;83;21781;-91
2022/08/10 08:41:49;;;;;;;3.17;2.45;;;;;;;21.94;50.37;102591.66;1672800;85;21569;-92
2022/08/10 08:44:52;;;;;;;2.47;2.12;;;;;;;21.83;50.57;102592.02;1677301;84;21080;-89
2022/08/10 08:47:52;;;;;;;2.45;1.80;;;;;;;21.57;50.73;102593.14;1705997;82;21529;-91
2022/08/10 08:51:04;;;;;;;2.20;2.00;;;;;;;21.53;50.93;102586.86;1717286;82;21056;-88
2022/08/10 08:54:07;;;;;;;2.60;2.08;;;;;;;21.59;51.07;102587.36;1715014;82;21764;-91
2022/08/10 08:56:45;;;;;;;2.20;2.00;;;;;;;21.92;51.20;102590.75;1685622;83;21068;-90
2022/08/10 08:59:34;;;;;;;2.60;2.10;;;;;;;22.21;50.71;102590.03;1688918;84;21574;-89
2022/08/10 09:02:37;;;;;;;3.77;2.15;;;;;;;22.46;50.72;102590.19;1695426;83;21075;-89
2022/08/10 09:05:15;;;;;;;3.05;2.42;;;;;;;22.71;50.62;102580.03;1657807;85;21561;-88
2022/08/10 09:08:05;;;;;;;2.35;2.15;;;;;;;22.76;49.82;102585.39;1667501;85;22294;-90
2022/08/10 09:10:46;;;;;;;3.10;1.98;;;;;;;22.62;49.46;102583.13;1550403;91;21769;-89
2022/08/10 09:13:43;;;;;;;2.30;1.90;;;;;;;22.36;49.27;102586.58;1667675;85;21092;-88
2022/08/10 09:16:33;;;;;;;2.22;1.87;;;;;;;22.21;49.47;102586.01;1725580;82;21168;-89
2022/08/10 09:19:14;;;;;;;2.08;1.80;;;;;;;22.28;49.75;102577.15;1740828;81;21054;-94
2022/08/10 09:21:58;;;;;;;2.77;2.02;;;;;;;22.48;49.74;102579.91;1723774;82;21762;-91
2022/08/10 09:24:47;;;;;;;2.10;1.90;;;;;;;22.58;49.80;102586.23;1700213;83;21095;-90
2022/08/10 09:27:38;;;;;;;4.15;2.40;;;;;;;22.66;49.51;102587.61;1712640;82;21063;-90
2022/08/10 09:30:07;;;;;;;1.80;1.70;;;;;;;22.63;49.41;102582.22;1700258;82;21558;-89
2022/08/10 09:32:52;;;;;;;2.80;2.00;;;;;;;22.65;49.46;102579.09;1707480;82;21067;-90
2022/08/10 09:35:56;;;;;;;4.72;1.95;;;;;;;22.75;49.64;102580.02;1714188;82;22587;-90
2022/08/10 09:39:06;;;;;;;2.50;1.85;;;;;;;22.89;49.20;102577.83;1708088;82;21819;-89
2022/08/10 09:41:57;;;;;;;2.05;1.65;;;;;;;22.91;49.28;102580.06;1732546;82;21588;-88
2022/08/10 09:44:51;;;;;;;2.60;1.65;;;;;;;22.95;49.23;102586.34;1724929;81;21581;-92
2022/08/10 09:47:24;;;;;;;;;;;;;;;23.03;49.29;102581.95;1732874;81;21056;-90
2022/08/10 09:50:28;;;;;;;3.85;1.82;;;;;;;23.16;49.11;102590.02;1716870;82;22719;-90
2022/08/10 09:53:11;;;;;;;1.92;1.70;;;;;;;23.18;49.11;102589.14;1713030;82;21059;-90
2022/08/10 09:56:30;;;;;;;2.53;1.80;;;;;;;23.18;49.36;102579.73;1732389;82;21379;-91
2022/08/10 09:59:29;;;;;;;3.25;1.50;;;;;;;23.08;49.28;102578.80;1727312;82;21489;-91
2022/08/10 10:02:23;;;;;;;1.92;1.72;;;;;;;22.85;49.44;102577.38;1730770;82;21083;-90
2022/08/10 10:05:11;;;;;;;;;;;;;;;22.68;49.60;102578.66;1702870;82;21758;-91
2022/08/10 10:07:43;;;;;;;2.72;1.75;;;;;;;22.63;50.00;102565.66;1707244;83;20362;-92
2022/08/10 10:10:14;;;;;;;2.25;1.98;;;;;;;22.52;49.92;102571.42;1717367;82;21063;-91
2022/08/10 10:12:56;;;;;;;2.35;1.82;;;;;;;22.42;50.06;102573.18;1730148;82;21019;-92
2022/08/10 10:15:54;;;;;;;3.12;2.00;;;;;;;22.33;50.05;102577.16;1729644;82;21612;-86
2022/08/10 10:18:55;;;;;;;2.05;1.32;;;;;;;22.24;50.22;102560.55;1705565;82;21717;-86
2022/08/10 10:22:02;;;;;;;3.58;1.35;;;;;;;22.14;50.32;102561.38;1718537;82;21138;-85
2022/08/10 10:24:55;;;;;;;2.67;1.50;;;;;;;22.09;50.58;102554.66;1718468;82;21058;-84
2022/08/10 10:27:46;;;;;;;5.60;1.60;;;;;;;22.14;50.57;102557.35;1712828;82;28820;-85
2022/08/10 10:30:14;;;;;;;3.60;2.27;;;;;;;22.13;50.71;102539.03;1716842;82;21107;-85
2022/08/10 10:33:03;;;;;;;1.80;1.60;;;;;;;22.20;50.91;102545.30;1716819;82;22580;-84
2022/08/10 10:35:51;;;;;;;1.95;1.72;;;;;;;22.23;50.92;102542.65;1718564;82;21065;-85
2022/08/10 10:38:18;;;;;;;1.87;1.50;;;;;;;22.22;50.79;102550.23;1718148;82;21150;-84
2022/08/10 10:41:00;;;;;;;2.60;1.67;;;;;;;22.23;50.87;102543.11;1713974;81;21173;-85
2022/08/10 10:43:51;;;;;;;2.90;1.47;;;;;;;22.30;50.88;102539.16;1712284;82;21066;-85
2022/08/10 10:46:52;;;;;;;3.77;1.70;;;;;;;22.34;50.71;102541.86;1712844;82;21753;-85
2022/08/10 10:49:36;;;;;;;2.02;1.45;;;;;;;22.31;50.92;102544.06;1707113;83;21748;-85
2022/08/10 10:52:44;;;;;;;2.12;1.72;;;;;;;22.40;50.75;102539.20;1716573;83;28893;-92
2022/08/10 10:55:34;;;;;;;1.67;1.50;;;;;;;22.52;50.80;102544.59;1721810;82;21028;-91
2022/08/10 10:58:35;;;;;;;2.37;2.17;;;;;;;22.50;50.31;102539.67;1699079;83;21129;-92
2022/08/10 11:01:33;;;;;;;3.25;1.85;;;;;;;22.56;50.30;102537.03;1708921;83;21791;-91
2022/08/10 11:04:26;;;;;;;4.40;1.52;;;;;;;22.69;50.41;102534.84;1699964;83;21046;-90
2022/08/10 11:07:10;;;;;;;1.92;1.50;;;;;;;22.78;50.29;102537.97;1702034;82;21069;-89
2022/08/10 11:10:19;;;;;;;2.60;1.40;;;;;;;22.77;50.17;102540.22;1700092;82;21048;-90
2022/08/10 11:13:11;;;;;;;2.50;1.52;;;;;;;22.75;50.24;102543.77;1717081;82;21110;-91
2022/08/10 11:15:59;;;;;;;1.60;1.32;;;;;;;22.74;50.21;102538.86;1705450;82;22136;-91
2022/08/10 11:18:34;;;;;;;2.02;1.82;;;;;;;22.59;50.29;102536.13;1689654;81;21572;-91
2022/08/10 11:21:22;;;;;;;2.75;1.50;;;;;;;22.60;50.61;102548.64;1699418;82;21116;-90
2022/08/10 11:24:06;;;;;;;2.20;1.50;;;;;;;22.64;50.47;102549.13;1663830;83;21131;-83
2022/08/10 11:26:41;;;;;;;1.85;1.30;;;;;;;22.65;50.45;102553.14;1665360;83;21155;-83
2022/08/10 11:29:19;;;;;;;1.60;1.45;;;;;;;22.62;50.47;102553.15;1660947;83;21793;-90
2022/08/10 11:31:55;;;;;;;2.00;1.50;;;;;;;22.59;50.38;102547.76;1656852;84;21076;-84
2022/08/10 11:34:51;;;;;;;1.65;1.32;;;;;;;22.58;50.45;102545.06;1645968;85;21095;-90
2022/08/10 11:37:40;;;;;;;1.87;1.22;;;;;;;22.58;50.44;102559.41;1660931;85;21095;-90
2022/08/10 11:40:12;;;;;;;2.10;1.90;;;;;;;22.43;50.36;102551.27;1659937;84;21372;-91
2022/08/10 11:43:09;;;;;;;1.60;1.50;;;;;;;22.45;50.68;102554.88;1654674;84;21717;-91
2022/08/10 11:45:40;;;;;;;6.85;4.83;;;;;;;22.50;50.60;102549.06;1656294;85;21335;-91
2022/08/10 11:48:37;;;;;;;2.27;1.70;;;;;;;22.56;50.56;102547.77;1657147;85;21076;-91
2022/08/10 11:51:08;;;;;;;3.55;1.75;;;;;;;22.64;50.47;102550.48;1673818;84;21333;-84
2022/08/10 11:53:52;;;;;;;2.55;1.30;;;;;;;22.78;50.55;102547.37;1665459;85;21114;-86
2022/08/10 11:56:22;;;;;;;3.05;1.70;;;;;;;22.90;50.32;102549.21;1635010;85;21103;-86
2022/08/10 12:01:37;;;;;;;2.15;1.30;;;;;;;23.08;50.26;102545.68;1665549;85;21622;-92
2022/08/10 12:04:06;;;;;;;1.47;1.35;;;;;;;23.05;49.92;102538.98;1672506;84;21589;-84